Time;durP1;ratioP1;P1;durP2;ratioP2;P2;SDS_P1;SDS_P2;PMS_P1;PMS_P2;Temp;Humidity;BMP_temperature;BMP_pressure;BME280_temperature;BME280_humidity;BME280_pressure;Samples;Min_cycle;Max_cycle;Signal;HPM_P1;HPM_P2
2020/12/09 00:01:58;;;;;;;33.50;15.27;;;0.80;99.90;;;;;;4735607;30;20057;-79
2020/12/09 00:04:24;;;;;;;35.08;16.63;;;0.80;99.90;;;;;;4735061;30;20076;-79
2020/12/09 00:06:51;;;;;;;34.35;15.57;;;0.70;99.90;;;;;;4735429;30;20060;-79
2020/12/09 00:09:23;;;;;;;38.72;15.50;;;0.70;99.90;;;;;;4736021;30;20049;-79
2020/12/09 00:11:54;;;;;;;31.05;15.25;;;0.70;99.90;;;;;;4734491;30;20048;-79
2020/12/09 00:14:22;;;;;;;32.70;16.35;;;0.70;99.90;;;;;;4723876;30;20055;-79
2020/12/09 00:16:49;;;;;;;34.70;17.25;;;0.70;99.90;;;;;;4723928;30;20475;-79
2020/12/09 00:19:16;;;;;;;36.03;15.50;;;0.70;99.90;;;;;;4724058;30;20060;-79
2020/12/09 00:21:43;;;;;;;36.70;15.77;;;0.70;99.90;;;;;;4738454;30;20048;-80
2020/12/09 00:24:10;;;;;;;35.75;16.27;;;0.70;99.90;;;;;;4738250;30;20052;-79
2020/12/09 00:26:41;;;;;;;32.35;15.02;;;0.70;99.90;;;;;;4738776;30;20052;-79
2020/12/09 00:29:08;;;;;;;30.35;15.70;;;0.70;99.90;;;;;;4724025;30;20098;-79
2020/12/09 00:31:34;;;;;;;33.72;15.82;;;0.70;99.90;;;;;;4738498;30;20040;-79
2020/12/09 00:34:02;;;;;;;37.42;16.92;;;0.80;99.90;;;;;;4723983;30;20453;-78
2020/12/09 00:36:28;;;;;;;34.35;15.48;;;0.80;99.90;;;;;;4723735;30;20497;-79
2020/12/09 00:38:56;;;;;;;31.13;15.40;;;0.80;99.90;;;;;;4723137;30;20055;-79
2020/12/09 00:41:28;;;;;;;35.10;15.40;;;0.80;99.90;;;;;;4724104;30;20479;-79
2020/12/09 00:43:56;;;;;;;38.38;15.52;;;0.70;99.90;;;;;;4723428;30;20059;-80
2020/12/09 00:46:25;;;;;;;32.40;14.30;;;0.70;99.90;;;;;;4737925;30;20052;-78
2020/12/09 00:48:55;;;;;;;31.60;14.40;;;0.70;99.90;;;;;;4737940;30;20052;-80
2020/12/09 00:51:33;;;;;;;32.78;14.32;;;0.70;99.90;;;;;;4724755;30;20044;-78
2020/12/09 00:54:06;;;;;;;35.70;15.18;;;0.80;99.90;;;;;;4738892;30;20052;-79
2020/12/09 00:56:43;;;;;;;34.50;15.75;;;0.80;99.90;;;;;;4737916;30;20044;-79
2020/12/09 00:59:12;;;;;;;30.23;15.80;;;0.80;99.90;;;;;;4723627;30;20052;-79
2020/12/09 01:01:40;;;;;;;34.55;15.70;;;0.80;99.90;;;;;;4737267;30;20132;-79
2020/12/09 01:04:12;;;;;;;32.60;15.05;;;0.80;99.90;;;;;;4737500;30;20073;-78
2020/12/09 01:06:44;;;;;;;33.35;16.65;;;0.90;99.90;;;;;;4723618;30;20052;-79
2020/12/09 01:09:16;;;;;;;30.10;15.18;;;0.80;99.90;;;;;;4723492;30;20517;-79
2020/12/09 01:11:42;;;;;;;34.65;15.38;;;0.80;99.90;;;;;;4737409;30;20071;-79
2020/12/09 01:14:14;;;;;;;36.97;16.15;;;0.80;99.90;;;;;;4736941;30;20170;-79
2020/12/09 01:16:46;;;;;;;33.03;15.63;;;0.80;99.90;;;;;;4737235;30;20040;-78
2020/12/09 01:19:12;;;;;;;35.67;15.90;;;0.80;99.90;;;;;;4722742;30;20424;-79
2020/12/09 01:21:44;;;;;;;33.53;15.82;;;0.80;99.90;;;;;;4737006;30;20044;-79
2020/12/09 01:24:11;;;;;;;33.38;14.55;;;0.80;99.90;;;;;;4737569;30;20097;-79
2020/12/09 01:26:37;;;;;;;37.92;16.00;;;0.80;99.90;;;;;;4722629;30;20052;-78
2020/12/09 01:29:09;;;;;;;38.05;16.95;;;0.80;99.90;;;;;;4723084;30;20056;-79
2020/12/09 01:31:41;;;;;;;36.75;16.15;;;0.90;99.90;;;;;;4723255;30;20532;-78
2020/12/09 01:34:08;;;;;;;37.80;17.02;;;0.80;99.90;;;;;;4736729;30;20052;-78
2020/12/09 01:36:35;;;;;;;36.67;15.95;;;0.90;99.90;;;;;;4737030;30;20471;-79
2020/12/09 01:39:02;;;;;;;39.65;15.75;;;0.90;99.90;;;;;;4736580;30;20533;-78
2020/12/09 01:41:34;;;;;;;35.35;15.65;;;0.80;99.90;;;;;;4722689;30;20048;-78
2020/12/09 01:44:00;;;;;;;37.22;16.48;;;0.80;99.90;;;;;;4736524;30;20048;-78
2020/12/09 01:46:31;;;;;;;38.17;17.08;;;0.80;99.90;;;;;;4736548;30;20076;-79
2020/12/09 01:48:59;;;;;;;35.20;15.95;;;0.80;99.90;;;;;;4722260;30;20098;-78
2020/12/09 01:51:28;;;;;;;37.63;16.77;;;0.80;99.90;;;;;;4736663;30;20152;-78
2020/12/09 01:54:00;;;;;;;35.92;15.93;;;0.90;99.90;;;;;;4736667;30;20052;-78
2020/12/09 01:56:27;;;;;;;34.53;16.33;;;0.80;99.90;;;;;;4721986;30;20649;-78
2020/12/09 01:58:55;;;;;;;38.45;17.35;;;0.90;99.90;;;;;;4736607;30;20048;-78
2020/12/09 02:01:26;;;;;;;37.70;18.23;;;0.80;99.90;;;;;;4736291;30;20059;-78
2020/12/09 02:03:53;;;;;;;42.33;17.02;;;0.80;99.90;;;;;;4736136;30;20106;-78
2020/12/09 02:06:21;;;;;;;44.88;17.92;;;0.90;99.90;;;;;;4736476;30;20138;-79
2020/12/09 02:08:48;;;;;;;39.13;16.52;;;0.80;99.90;;;;;;4721629;30;20048;-78
2020/12/09 02:11:15;;;;;;;39.13;15.88;;;0.80;99.90;;;;;;4721971;30;20075;-78
2020/12/09 02:13:44;;;;;;;41.55;17.40;;;0.80;99.90;;;;;;4736394;30;20064;-79
2020/12/09 02:16:17;;;;;;;38.60;16.17;;;0.80;99.90;;;;;;4736454;30;20243;-78
2020/12/09 02:18:45;;;;;;;40.53;17.30;;;0.80;99.90;;;;;;4736521;30;20501;-79
2020/12/09 02:21:11;;;;;;;38.55;18.17;;;0.70;99.90;;;;;;4721835;30;20060;-79
2020/12/09 03:31:00;;;;;;;44.00;19.52;;;0.80;99.90;;;;;;5167379;24;19960;-79
2020/12/09 03:33:26;;;;;;;43.00;19.05;;;0.80;99.90;;;;;;4724360;30;20053;-80
2020/12/09 03:35:58;;;;;;;42.53;18.38;;;0.80;99.90;;;;;;4754981;30;20124;-80
2020/12/09 03:38:30;;;;;;;41.95;18.73;;;0.80;99.90;;;;;;4739769;30;20044;-79
2020/12/09 03:41:02;;;;;;;48.95;20.48;;;0.80;99.90;;;;;;4725091;30;20139;-79
2020/12/09 03:43:29;;;;;;;40.53;18.10;;;0.80;99.90;;;;;;4724202;30;20063;-79
2020/12/09 03:45:56;;;;;;;44.97;18.95;;;0.80;99.90;;;;;;4724328;30;20048;-79
2020/12/09 03:48:23;;;;;;;42.58;18.17;;;0.80;99.90;;;;;;4738737;30;20050;-79
2020/12/09 03:50:55;;;;;;;42.17;18.33;;;0.80;99.90;;;;;;4724928;30;20048;-79
2020/12/09 03:59:32;;;;;;;49.78;20.23;;;0.80;99.90;;;;;;4928105;24;19926;-77
2020/12/09 04:02:04;;;;;;;47.97;20.75;;;0.80;99.90;;;;;;4756424;30;20113;-77
2020/12/09 04:04:35;;;;;;;45.47;20.15;;;0.70;99.90;;;;;;4738761;30;20048;-77
2020/12/09 04:07:02;;;;;;;42.40;18.75;;;0.80;99.90;;;;;;4738769;30;20157;-77
2020/12/09 04:09:30;;;;;;;48.25;21.58;;;0.80;99.90;;;;;;4753105;30;20053;-77
2020/12/09 04:11:57;;;;;;;40.78;18.38;;;0.80;99.90;;;;;;4738956;30;20167;-77
2020/12/09 04:14:23;;;;;;;41.67;19.75;;;0.80;99.90;;;;;;4751947;30;20060;-77
2020/12/09 04:16:50;;;;;;;45.42;19.52;;;0.80;99.90;;;;;;4738458;30;20063;-77
2020/12/09 04:19:22;;;;;;;46.85;19.10;;;0.80;99.90;;;;;;4738045;30;20058;-79
2020/12/09 04:21:48;;;;;;;46.13;18.70;;;0.80;99.90;;;;;;4723663;30;20475;-79
2020/12/09 04:24:15;;;;;;;44.28;20.15;;;0.80;99.90;;;;;;4752729;30;20044;-80
2020/12/09 04:26:47;;;;;;;47.47;22.10;;;0.80;99.90;;;;;;4724224;30;20060;-79
2020/12/09 04:29:13;;;;;;;48.55;20.55;;;0.80;99.90;;;;;;4737988;30;20059;-79
2020/12/09 04:31:45;;;;;;;47.65;19.95;;;0.80;99.90;;;;;;4752564;30;20052;-79
2020/12/09 04:34:12;;;;;;;48.53;21.13;;;0.80;99.90;;;;;;4752496;30;20052;-80
2020/12/09 04:36:41;;;;;;;43.83;20.65;;;0.80;99.90;;;;;;4722221;30;20075;-79
2020/12/09 04:39:12;;;;;;;42.90;19.95;;;0.80;99.90;;;;;;4749331;30;20054;-79
2020/12/09 04:41:45;;;;;;;41.15;19.02;;;0.80;99.90;;;;;;4750107;30;20066;-78
2020/12/09 04:44:16;;;;;;;44.63;20.25;;;0.80;99.90;;;;;;4734972;30;20056;-78
2020/12/09 04:46:49;;;;;;;46.50;19.00;;;0.80;99.90;;;;;;4749897;30;20052;-79
2020/12/09 04:49:20;;;;;;;42.10;19.92;;;0.90;99.90;;;;;;4734523;30;20280;-79
2020/12/09 04:52:25;;;;;;;44.92;20.10;;;0.90;99.90;;;;;;4732367;30;20048;-79
2020/12/09 04:55:08;;;;;;;41.95;18.80;;;0.90;99.90;;;;;;4734441;30;20058;-78
2020/12/09 04:58:02;;;;;;;42.78;20.30;;;0.90;99.90;;;;;;4748928;30;20044;-79
2020/12/09 05:00:34;;;;;;;45.75;21.33;;;0.90;99.90;;;;;;4734571;30;20498;-78
2020/12/09 05:03:15;;;;;;;41.08;19.50;;;0.90;99.90;;;;;;4748759;30;20059;-80
2020/12/09 05:05:42;;;;;;;45.90;20.25;;;0.90;99.90;;;;;;4747007;30;20052;-79
2020/12/09 05:08:18;;;;;;;45.92;20.02;;;0.90;99.90;;;;;;4732978;30;20052;-79
2020/12/09 05:10:46;;;;;;;48.53;20.23;;;0.90;99.90;;;;;;4734512;30;20143;-79
2020/12/09 05:13:23;;;;;;;41.03;18.52;;;0.90;99.90;;;;;;4746789;30;20060;-80
2020/12/09 05:15:54;;;;;;;45.78;19.58;;;0.90;99.90;;;;;;4737772;30;20052;-77
2020/12/09 05:18:48;;;;;;;45.22;19.80;;;0.90;99.90;;;;;;4747416;30;20147;-77
2020/12/09 05:21:21;;;;;;;41.25;19.88;;;0.90;99.90;;;;;;4739403;30;20071;-77
2020/12/09 05:23:56;;;;;;;42.40;18.70;;;0.90;99.90;;;;;;4748287;30;20048;-77
2020/12/09 05:26:38;;;;;;;45.10;18.42;;;0.90;99.90;;;;;;4748914;30;20058;-77
2020/12/09 05:29:12;;;;;;;41.15;18.58;;;1.00;99.90;;;;;;4747197;30;20050;-77
2020/12/09 05:31:40;;;;;;;47.58;20.17;;;1.00;99.90;;;;;;4747911;30;20504;-78
2020/12/09 05:34:30;;;;;;;44.72;20.52;;;0.90;99.90;;;;;;4748359;30;20429;-78
2020/12/09 05:37:04;;;;;;;43.00;18.67;;;0.90;99.90;;;;;;4749788;30;20062;-77
2020/12/09 05:39:52;;;;;;;41.13;18.42;;;1.00;99.90;;;;;;4748964;30;20048;-77
2020/12/09 05:42:24;;;;;;;43.10;19.17;;;1.00;99.90;;;;;;4748443;30;20501;-77
2020/12/09 05:44:50;;;;;;;42.88;19.88;;;1.00;99.90;;;;;;4749038;30;20056;-79
2020/12/09 05:47:22;;;;;;;39.08;17.25;;;1.00;99.90;;;;;;4748919;30;20058;-78
2020/12/09 05:49:57;;;;;;;44.97;20.80;;;1.00;99.90;;;;;;4748359;30;20417;-77
2020/12/09 05:52:29;;;;;;;46.92;20.55;;;1.00;99.90;;;;;;4748651;30;20048;-77
2020/12/09 05:55:01;;;;;;;45.22;20.20;;;1.00;99.90;;;;;;4749010;30;20063;-79
2020/12/09 05:57:27;;;;;;;42.80;18.05;;;0.90;99.90;;;;;;4754020;30;20159;-79
2020/12/09 05:59:55;;;;;;;44.70;20.13;;;1.00;99.90;;;;;;4752443;30;20509;-80
2020/12/09 06:02:28;;;;;;;38.08;18.35;;;1.00;99.90;;;;;;4763764;29;20056;-80
2020/12/09 06:05:00;;;;;;;42.22;19.30;;;1.00;99.90;;;;;;4741986;30;20158;-79
2020/12/09 06:07:31;;;;;;;44.50;19.55;;;1.00;99.90;;;;;;4737181;30;20110;-80
2020/12/09 06:10:09;;;;;;;43.78;21.02;;;1.00;99.90;;;;;;4755284;30;20410;-80
2020/12/09 06:12:49;;;;;;;43.70;19.50;;;1.00;99.90;;;;;;4743784;30;20083;-80
2020/12/09 06:15:16;;;;;;;40.13;18.33;;;1.00;99.90;;;;;;4752203;30;20061;-80
2020/12/09 06:18:01;;;;;;;42.60;18.58;;;1.00;99.90;;;;;;4733878;30;20212;-80
2020/12/09 06:20:35;;;;;;;42.97;17.88;;;1.00;99.90;;;;;;4734745;30;20521;-79
2020/12/09 06:23:08;;;;;;;43.50;19.90;;;1.00;99.90;;;;;;4734640;30;20055;-80
2020/12/09 06:25:41;;;;;;;41.13;20.10;;;1.00;99.90;;;;;;4734920;30;20055;-80
2020/12/09 06:28:15;;;;;;;38.25;18.67;;;1.00;99.90;;;;;;4733730;30;20564;-80
2020/12/09 06:30:44;;;;;;;43.30;18.48;;;1.00;99.90;;;;;;4734689;30;20505;-79
2020/12/09 06:33:12;;;;;;;41.00;19.38;;;1.00;99.90;;;;;;4734264;30;20138;-80
2020/12/09 06:35:40;;;;;;;42.10;18.90;;;1.00;99.90;;;;;;4734287;30;20105;-80
2020/12/09 06:38:10;;;;;;;40.47;19.05;;;1.00;99.90;;;;;;4733650;30;20048;-80
2020/12/09 06:41:00;;;;;;;44.88;20.38;;;1.00;99.90;;;;;;4748620;30;20147;-79
2020/12/09 06:43:28;;;;;;;48.40;18.75;;;1.00;99.90;;;;;;4748873;30;20148;-80
2020/12/09 06:45:55;;;;;;;41.40;18.38;;;1.00;99.90;;;;;;4740666;30;20076;-80
2020/12/09 06:48:38;;;;;;;38.95;18.52;;;1.00;99.90;;;;;;4733747;30;20052;-79
2020/12/09 06:51:40;;;;;;;44.53;19.58;;;1.00;99.90;;;;;;4734074;30;20100;-79
2020/12/09 06:54:14;;;;;;;40.17;18.38;;;1.00;99.90;;;;;;4733807;30;20102;-79
2020/12/09 06:56:43;;;;;;;39.80;18.85;;;1.00;99.90;;;;;;4736334;30;20087;-80
2020/12/09 06:59:26;;;;;;;42.03;18.50;;;1.00;99.90;;;;;;4735043;30;20067;-80
2020/12/09 07:01:59;;;;;;;44.20;17.67;;;1.00;99.90;;;;;;4735635;30;20130;-80
2020/12/09 07:04:54;;;;;;;42.10;20.05;;;1.00;99.90;;;;;;4735270;30;20053;-80
2020/12/09 07:07:37;;;;;;;36.70;17.42;;;0.90;99.90;;;;;;4734874;30;20045;-80
2020/12/09 07:10:25;;;;;;;38.17;18.33;;;1.00;99.90;;;;;;4735125;30;20060;-80
2020/12/09 07:13:04;;;;;;;40.60;18.52;;;1.00;99.90;;;;;;4735368;30;20067;-80
2020/12/09 07:15:30;;;;;;;38.45;18.25;;;1.00;99.90;;;;;;4733891;30;20060;-79
2020/12/09 07:17:57;;;;;;;43.88;18.23;;;1.00;99.90;;;;;;4748228;30;20060;-80
2020/12/09 07:20:29;;;;;;;35.72;16.15;;;1.00;99.90;;;;;;4734964;30;20501;-80
2020/12/09 07:23:03;;;;;;;34.88;16.80;;;1.00;99.90;;;;;;4749138;30;20044;-79
2020/12/09 07:25:30;;;;;;;39.92;17.80;;;1.00;99.90;;;;;;4734568;30;20052;-80
2020/12/09 07:27:58;;;;;;;43.97;19.13;;;1.10;99.90;;;;;;4734322;30;20102;-80
2020/12/09 07:30:29;;;;;;;42.42;18.73;;;1.00;99.90;;;;;;4734453;30;20044;-80
2020/12/09 07:33:01;;;;;;;34.10;15.98;;;1.10;99.90;;;;;;4749141;30;20052;-79
2020/12/09 07:35:27;;;;;;;36.60;16.27;;;1.10;99.90;;;;;;4734515;30;20147;-80
2020/12/09 07:37:57;;;;;;;40.70;17.63;;;1.10;99.90;;;;;;4735306;30;20052;-80
2020/12/09 07:40:35;;;;;;;35.10;16.53;;;1.10;99.90;;;;;;4734558;30;20082;-80
2020/12/09 07:43:12;;;;;;;35.50;17.77;;;1.10;99.90;;;;;;4748289;30;20471;-79
2020/12/09 07:45:44;;;;;;;38.92;18.38;;;1.10;99.90;;;;;;4734483;30;20445;-80
2020/12/09 07:48:17;;;;;;;37.40;18.17;;;1.10;99.90;;;;;;4736203;30;20107;-79
2020/12/09 07:50:51;;;;;;;40.30;18.30;;;1.10;99.90;;;;;;4737347;30;20059;-80
2020/12/09 07:53:23;;;;;;;38.22;17.27;;;1.10;99.90;;;;;;4737917;30;20047;-80
2020/12/09 07:55:51;;;;;;;41.38;18.02;;;1.10;99.90;;;;;;4737110;30;20062;-80
2020/12/09 07:58:23;;;;;;;39.53;18.53;;;1.00;99.90;;;;;;4737388;30;20048;-80
2020/12/09 08:00:50;;;;;;;42.35;18.77;;;1.10;99.90;;;;;;4737081;30;20052;-79
2020/12/09 08:03:19;;;;;;;44.63;18.08;;;1.00;99.90;;;;;;4750748;30;20121;-79
2020/12/09 08:05:46;;;;;;;41.08;17.67;;;1.10;99.90;;;;;;4737882;30;20438;-80
2020/12/09 08:08:13;;;;;;;45.15;19.83;;;1.10;99.90;;;;;;4737097;30;20113;-80
2020/12/09 08:10:43;;;;;;;37.92;17.08;;;1.10;99.90;;;;;;4753095;30;20068;-80
2020/12/09 08:13:20;;;;;;;36.53;17.27;;;1.10;99.90;;;;;;4752949;30;20055;-80
2020/12/09 08:16:00;;;;;;;41.20;17.95;;;1.10;99.90;;;;;;4750660;30;20127;-80
2020/12/09 08:18:26;;;;;;;39.47;18.75;;;1.10;99.90;;;;;;4720459;30;20057;-80
2020/12/09 08:20:53;;;;;;;36.75;16.90;;;1.00;99.90;;;;;;4716908;30;20052;-80
2020/12/09 08:23:21;;;;;;;40.53;16.92;;;1.00;99.90;;;;;;4751822;30;20052;-80
2020/12/09 08:25:50;;;;;;;36.45;16.83;;;1.10;99.90;;;;;;4751976;30;20063;-80
2020/12/09 08:28:25;;;;;;;38.13;17.70;;;1.10;99.90;;;;;;4750917;30;20200;-80
2020/12/09 08:30:54;;;;;;;39.58;19.05;;;1.10;99.90;;;;;;4753164;30;20048;-80
2020/12/09 08:33:26;;;;;;;36.25;16.50;;;1.10;99.90;;;;;;4755579;30;20437;-79
2020/12/09 08:36:01;;;;;;;36.70;17.77;;;1.20;99.90;;;;;;4754521;30;20142;-80
2020/12/09 08:38:40;;;;;;;35.50;15.55;;;1.20;99.90;;;;;;4752240;30;20479;-81
2020/12/09 08:41:23;;;;;;;36.22;18.15;;;1.20;99.90;;;;;;4752033;30;20143;-82
2020/12/09 08:43:54;;;;;;;41.17;16.90;;;1.20;99.90;;;;;;4751154;30;20052;-80
2020/12/09 08:46:23;;;;;;;43.70;18.58;;;1.20;99.90;;;;;;4750351;30;20535;-79
2020/12/09 08:48:51;;;;;;;46.65;19.48;;;1.20;99.90;;;;;;4750302;30;20563;-79
2020/12/09 08:51:26;;;;;;;42.22;19.45;;;1.10;99.90;;;;;;4749962;30;20059;-79
2020/12/09 08:53:53;;;;;;;43.95;18.90;;;1.10;99.90;;;;;;4749992;30;20079;-79
2020/12/09 08:56:27;;;;;;;42.50;18.80;;;1.10;99.90;;;;;;4747664;30;20673;-79
2020/12/09 08:58:54;;;;;;;41.58;17.75;;;1.10;99.90;;;;;;4748223;30;20078;-79
2020/12/09 09:01:21;;;;;;;45.05;19.42;;;1.10;99.90;;;;;;4749554;30;20052;-79
2020/12/09 09:04:04;;;;;;;42.90;20.10;;;1.10;99.90;;;;;;4762278;30;20055;-79
2020/12/09 09:06:33;;;;;;;48.38;19.98;;;1.00;99.90;;;;;;4751077;30;20052;-79
2020/12/09 09:09:05;;;;;;;43.63;18.50;;;1.00;99.90;;;;;;4749092;30;20048;-80
2020/12/09 09:11:58;;;;;;;;;;;;;;;;;;;;;
2020/12/09 09:14:56;;;;;;;41.58;17.92;;;1.10;99.90;;;;;;4695812;30;20065;-80
2020/12/09 09:17:24;;;;;;;38.92;17.15;;;1.00;99.90;;;;;;4696012;30;20104;-80
2020/12/09 09:19:50;;;;;;;37.33;17.63;;;1.00;99.90;;;;;;4696159;30;20080;-80
2020/12/09 09:22:17;;;;;;;42.03;17.65;;;1.00;99.90;;;;;;4698522;30;20462;-81
2020/12/09 09:24:44;;;;;;;44.47;17.58;;;1.00;99.90;;;;;;4698496;30;20131;-81
2020/12/09 09:27:16;;;;;;;42.95;17.30;;;1.00;99.90;;;;;;4684629;30;20057;-81
2020/12/09 09:29:43;;;;;;;45.88;17.75;;;1.00;99.90;;;;;;4684211;30;20049;-81
2020/12/09 09:32:12;;;;;;;39.15;17.98;;;1.00;99.90;;;;;;4752145;30;20105;-81
2020/12/09 09:34:44;;;;;;;44.38;17.25;;;0.90;99.90;;;;;;4752176;30;20056;-81
2020/12/09 09:37:11;;;;;;;37.95;17.55;;;0.90;99.90;;;;;;4753305;30;20052;-81
2020/12/09 09:39:43;;;;;;;39.67;18.33;;;0.90;99.90;;;;;;4757075;30;20067;-81
2020/12/09 09:42:10;;;;;;;40.60;19.00;;;0.90;99.90;;;;;;4752728;30;20181;-81
2020/12/09 09:44:37;;;;;;;43.17;18.55;;;0.90;99.90;;;;;;4752431;30;20147;-81
2020/12/09 09:47:04;;;;;;;43.28;17.30;;;0.90;99.90;;;;;;4752422;30;20118;-81
2020/12/09 09:49:31;;;;;;;40.50;17.30;;;0.90;99.90;;;;;;4752444;30;20044;-80
2020/12/09 09:52:03;;;;;;;35.83;16.55;;;0.80;99.90;;;;;;4752249;30;20049;-81
2020/12/09 09:54:30;;;;;;;32.97;16.48;;;0.80;99.90;;;;;;4751564;30;20078;-81
2020/12/09 09:56:57;;;;;;;40.63;18.50;;;0.80;99.90;;;;;;4751865;30;20505;-80
2020/12/09 10:20:57;;;;;;;35.83;15.70;;;0.80;99.90;;;;;;5778182;24;21189;-81
2020/12/09 10:41:43;;;;;;;29.25;15.20;;;1.00;99.90;;;;;;5771085;24;20060;-79
2020/12/09 10:44:14;;;;;;;31.15;15.32;;;1.10;99.90;;;;;;4779124;24;20044;-81
2020/12/09 10:47:53;;;;;;;30.02;14.05;;;1.30;99.90;;;;;;4767460;30;20139;-81
2020/12/09 10:50:52;;;;;;;23.95;13.10;;;1.30;99.90;;;;;;4751612;30;20086;-82
2020/12/09 10:53:53;;;;;;;25.42;12.77;;;1.30;99.90;;;;;;4716033;30;20056;-81
2020/12/09 10:57:04;;;;;;;29.30;13.10;;;1.20;99.90;;;;;;4736127;30;20049;-82
2020/12/09 11:03:29;;;;;;;26.17;13.18;;;1.20;99.90;;;;;;4748495;30;20414;-81
2020/12/09 11:09:27;;;;;;;28.52;12.02;;;1.10;99.90;;;;;;4692213;30;20057;-82
2020/12/09 11:12:39;;;;;;;24.20;11.85;;;1.10;99.90;;;;;;4688171;30;20069;-82
2020/12/09 11:59:46;;;;;;;19.00;10.75;;;1.10;99.90;;;;;;4735808;30;20071;-81
2020/12/09 12:56:00;;;;;;;16.55;9.13;;;1.10;99.90;;;;;;4723758;30;19994;-80
2020/12/09 14:03:51;;;;;;;19.30;10.15;;;1.00;99.90;;;;;;4750438;30;20051;-81
2020/12/09 14:34:27;;;;;;;16.95;9.15;;;0.90;99.90;;;;;;4778153;30;20082;-84
2020/12/09 15:20:43;;;;;;;13.45;8.13;;;0.70;99.90;;;;;;4920327;24;20529;-79
2020/12/09 15:35:44;;;;;;;16.42;8.48;;;0.70;99.90;;;;;;4736483;30;20059;-80
2020/12/09 15:38:16;;;;;;;13.93;7.95;;;0.70;99.90;;;;;;4708114;30;20052;-80
2020/12/09 15:40:48;;;;;;;14.00;8.20;;;0.70;99.90;;;;;;4707923;30;20104;-80
2020/12/09 15:43:20;;;;;;;17.70;9.48;;;0.70;99.90;;;;;;4707889;30;20049;-80
2020/12/09 15:45:47;;;;;;;13.30;8.10;;;0.70;99.90;;;;;;4707215;30;20060;-79
2020/12/09 15:48:14;;;;;;;14.32;8.38;;;0.70;99.90;;;;;;4721720;30;20060;-79
2020/12/09 15:50:41;;;;;;;13.70;8.35;;;0.70;99.90;;;;;;4721483;30;20053;-80
2020/12/09 15:53:08;;;;;;;14.93;9.05;;;0.70;99.90;;;;;;4707044;30;20534;-79
2020/12/09 15:55:34;;;;;;;12.25;8.15;;;0.60;99.90;;;;;;4706958;30;20084;-79
2020/12/09 15:58:01;;;;;;;13.32;7.43;;;0.70;99.90;;;;;;4707083;30;20052;-80
2020/12/09 16:00:29;;;;;;;13.32;10.00;;;0.70;99.90;;;;;;4721403;30;20061;-79
2020/12/09 16:02:56;;;;;;;13.55;7.32;;;0.70;99.90;;;;;;4706708;30;20148;-80
2020/12/09 16:05:23;;;;;;;13.30;7.47;;;0.70;99.90;;;;;;4721291;30;20084;-79
2020/12/09 16:07:50;;;;;;;11.55;7.90;;;0.70;99.90;;;;;;4706943;30;20052;-80
2020/12/09 16:10:19;;;;;;;11.75;7.03;;;0.70;99.90;;;;;;4706542;30;20063;-79
2020/12/09 16:12:47;;;;;;;10.70;6.90;;;0.70;99.90;;;;;;4721166;30;20528;-80
2020/12/09 16:15:17;;;;;;;11.00;6.57;;;0.70;99.90;;;;;;4721305;30;20140;-80
2020/12/09 16:18:09;;;;;;;10.48;7.07;;;0.70;99.90;;;;;;4706840;30;20525;-80
2020/12/09 16:20:48;;;;;;;11.30;6.65;;;0.70;99.90;;;;;;4721130;30;20116;-80
2020/12/09 16:23:15;;;;;;;27.25;15.88;;;0.70;99.90;;;;;;4706827;30;20053;-80
2020/12/09 16:25:41;;;;;;;10.55;7.40;;;0.70;99.90;;;;;;4721369;30;20045;-79
2020/12/09 16:28:08;;;;;;;11.43;7.32;;;0.70;99.90;;;;;;4706672;30;20080;-79
2020/12/09 16:30:44;;;;;;;12.52;7.28;;;0.70;99.90;;;;;;4721436;30;20056;-80
2020/12/09 16:33:19;;;;;;;15.05;7.72;;;0.70;99.90;;;;;;4707455;30;20612;-80
2020/12/09 16:35:46;;;;;;;11.88;7.22;;;0.70;99.90;;;;;;4719810;30;20093;-80
2020/12/09 16:38:18;;;;;;;11.93;7.38;;;0.70;99.90;;;;;;4723910;30;20052;-80
2020/12/09 16:40:51;;;;;;;14.38;9.40;;;0.70;99.90;;;;;;4738692;30;20052;-80
2020/12/09 16:51:59;;;;;;;11.75;7.53;;;0.70;99.90;;;;;;4770033;30;20079;-79
2020/12/09 16:54:25;;;;;;;12.95;8.25;;;0.70;99.90;;;;;;4738173;30;20053;-79
2020/12/09 16:56:54;;;;;;;11.98;7.45;;;0.70;99.90;;;;;;4752858;30;20049;-79
2020/12/09 16:59:20;;;;;;;11.20;6.38;;;0.70;99.90;;;;;;4738174;30;20052;-79
2020/12/09 17:01:47;;;;;;;11.55;7.78;;;0.70;99.90;;;;;;4752797;30;20052;-79
2020/12/09 17:04:19;;;;;;;9.98;6.63;;;0.70;99.90;;;;;;4752388;30;20520;-79
2020/12/09 17:06:49;;;;;;;11.43;7.32;;;0.70;99.90;;;;;;4735861;30;20105;-80
2020/12/09 17:09:17;;;;;;;11.40;7.65;;;0.70;99.90;;;;;;4750448;30;20086;-77
2020/12/09 17:11:47;;;;;;;10.02;7.18;;;0.70;99.90;;;;;;4750944;30;20076;-79
2020/12/09 17:14:13;;;;;;;11.73;8.02;;;0.70;99.90;;;;;;4737684;30;20067;-79
2020/12/09 17:16:40;;;;;;;12.27;7.53;;;0.70;99.90;;;;;;4752353;30;20052;-79
2020/12/09 17:19:27;;;;;;;13.02;7.75;;;0.70;99.90;;;;;;4753618;30;20413;-79
2020/12/09 17:21:57;;;;;;;14.27;9.85;;;0.70;99.90;;;;;;4759460;30;20048;-80
2020/12/09 17:24:25;;;;;;;11.10;7.05;;;0.70;99.90;;;;;;4757384;30;20106;-80
2020/12/09 17:27:57;;;;;;;12.68;7.93;;;0.70;99.90;;;;;;4752690;30;20071;-79
2020/12/09 17:30:24;;;;;;;13.93;8.07;;;0.70;99.90;;;;;;4737083;30;20053;-79
2020/12/09 17:32:50;;;;;;;11.07;7.47;;;0.70;99.90;;;;;;4722527;30;20120;-79
2020/12/09 17:35:21;;;;;;;12.88;8.55;;;0.70;99.90;;;;;;4720259;30;20144;-78
2020/12/09 17:37:53;;;;;;;14.20;8.15;;;0.70;99.90;;;;;;4740343;30;20121;-79
2020/12/09 17:40:24;;;;;;;16.30;9.82;;;0.70;99.90;;;;;;4739901;30;20063;-79
2020/12/09 17:42:56;;;;;;;13.20;8.40;;;0.70;99.90;;;;;;4740655;30;20051;-79
2020/12/09 17:45:27;;;;;;;14.30;8.82;;;0.70;99.90;;;;;;4723994;30;20079;-79
2020/12/09 17:47:54;;;;;;;13.18;7.80;;;0.70;99.90;;;;;;4740068;30;20059;-79
2020/12/09 17:50:20;;;;;;;13.52;8.82;;;0.70;99.90;;;;;;4739336;30;20064;-79
2020/12/09 17:52:47;;;;;;;17.25;9.95;;;0.70;99.90;;;;;;4739650;30;20052;-80
2020/12/09 17:55:14;;;;;;;17.48;9.63;;;0.70;99.90;;;;;;4727274;30;20128;-79
2020/12/09 17:57:41;;;;;;;14.10;9.20;;;0.70;99.90;;;;;;4745676;30;20603;-80
2020/12/09 18:00:13;;;;;;;14.40;8.55;;;0.70;99.90;;;;;;4745089;30;20046;-79
2020/12/09 18:02:40;;;;;;;14.82;9.52;;;0.70;99.90;;;;;;4739968;30;20114;-80
2020/12/09 18:05:07;;;;;;;14.27;8.95;;;0.70;99.90;;;;;;4724319;30;20524;-79
2020/12/09 18:07:47;;;;;;;14.75;8.60;;;0.80;99.90;;;;;;4726296;30;20049;-79
2020/12/09 18:10:15;;;;;;;13.32;8.00;;;0.80;99.90;;;;;;4754457;30;20056;-79
2020/12/09 18:13:24;;;;;;;12.80;8.07;;;0.80;99.90;;;;;;4744962;30;20035;-82
2020/12/09 18:31:14;;;;;;;13.95;8.23;;;0.70;99.90;;;;;;4770934;29;20063;-79
2020/12/09 20:37:27;;;;;;;16.80;10.05;;;0.80;99.90;;;;;;4767644;30;20047;-80
2020/12/09 22:04:40;;;;;;;16.40;10.05;;;0.80;99.90;;;;;;4764617;30;20679;-81
2020/12/09 22:07:07;;;;;;;17.00;9.90;;;0.80;99.90;;;;;;4737752;30;20066;-80
2020/12/09 22:09:34;;;;;;;17.17;9.85;;;0.80;99.90;;;;;;4737546;30;20067;-80
2020/12/09 22:12:07;;;;;;;17.67;10.88;;;0.80;99.90;;;;;;4723777;30;20640;-80
2020/12/09 22:49:46;;;;;;;17.33;10.52;;;0.80;99.90;;;;;;5131952;24;20114;-80
2020/12/09 22:52:14;;;;;;;18.33;11.77;;;0.80;99.90;;;;;;4748248;30;20056;-81
2020/12/09 22:54:46;;;;;;;15.93;10.25;;;0.90;99.90;;;;;;4733939;30;20106;-81
2020/12/09 22:57:23;;;;;;;18.88;11.30;;;0.80;99.90;;;;;;4722829;30;20106;-81
2020/12/09 22:59:50;;;;;;;15.98;10.45;;;0.80;99.90;;;;;;4736774;30;20501;-80
2020/12/09 23:02:18;;;;;;;16.90;10.65;;;0.80;99.90;;;;;;4722065;30;20098;-81
